sensor_id;sensor_type;location;lat;lon;timestamp;pressure;altitude;pressure_sealevel;temperature;humidity
61026;BME280;46911;32.650;-16.902;2023-03-14T00:01:24;102140.06;;;15.69;73.14
61026;BME280;46911;32.650;-16.902;2023-03-14T00:03:31;102150.09;;;15.80;72.39
61026;BME280;46911;32.650;-16.902;2023-03-14T00:05:35;102147.91;;;15.72;72.37
61026;BME280;46911;32.650;-16.902;2023-03-14T00:07:37;102161.81;;;15.79;72.36
61026;BME280;46911;32.650;-16.902;2023-03-14T00:09:41;102156.44;;;15.79;72.32
61026;BME280;46911;32.650;-16.902;2023-03-14T00:11:45;102160.66;;;15.83;71.28
61026;BME280;46911;32.650;-16.902;2023-03-14T00:13:50;102151.66;;;15.69;71.24
61026;BME280;46911;32.650;-16.902;2023-03-14T00:15:54;102121.03;;;15.45;70.37
61026;BME280;46911;32.650;-16.902;2023-03-14T00:17:57;102152.94;;;15.64;69.31
61026;BME280;46911;32.650;-16.902;2023-03-14T00:19:58;102166.06;;;15.68;69.45
61026;BME280;46911;32.650;-16.902;2023-03-14T00:22:04;102158.63;;;15.59;69.53
61026;BME280;46911;32.650;-16.902;2023-03-14T00:24:06;102161.31;;;15.59;69.72
61026;BME280;46911;32.650;-16.902;2023-03-14T00:26:15;102156.75;;;15.47;69.80
61026;BME280;46911;32.650;-16.902;2023-03-14T00:28:17;102165.59;;;15.49;69.26
61026;BME280;46911;32.650;-16.902;2023-03-14T00:30:18;102157.69;;;15.46;69.07
61026;BME280;46911;32.650;-16.902;2023-03-14T00:32:22;102156.06;;;15.43;68.93
61026;BME280;46911;32.650;-16.902;2023-03-14T00:34:26;102121.91;;;15.18;68.60
61026;BME280;46911;32.650;-16.902;2023-03-14T00:36:30;102159.28;;;15.35;68.77
61026;BME280;46911;32.650;-16.902;2023-03-14T00:38:35;102144.41;;;15.30;69.10
61026;BME280;46911;32.650;-16.902;2023-03-14T00:40:39;102138.38;;;15.26;68.63
61026;BME280;46911;32.650;-16.902;2023-03-14T00:42:40;102152.63;;;15.41;68.53
61026;BME280;46911;32.650;-16.902;2023-03-14T00:44:41;102152.22;;;15.47;67.32
61026;BME280;46911;32.650;-16.902;2023-03-14T00:46:42;102135.94;;;15.36;67.90
61026;BME280;46911;32.650;-16.902;2023-03-14T00:48:45;102151.88;;;15.39;68.12
61026;BME280;46911;32.650;-16.902;2023-03-14T00:50:49;102130.78;;;15.33;67.70
61026;BME280;46911;32.650;-16.902;2023-03-14T00:52:50;102144.25;;;15.46;66.95
61026;BME280;46911;32.650;-16.902;2023-03-14T00:54:54;102141.78;;;15.43;66.33
61026;BME280;46911;32.650;-16.902;2023-03-14T00:57:01;102146.69;;;15.36;66.24
61026;BME280;46911;32.650;-16.902;2023-03-14T00:59:02;102141.06;;;15.26;66.70
61026;BME280;46911;32.650;-16.902;2023-03-14T01:01:12;102118.72;;;15.11;66.98
61026;BME280;46911;32.650;-16.902;2023-03-14T01:03:14;102128.63;;;15.11;67.38
61026;BME280;46911;32.650;-16.902;2023-03-14T01:05:15;102114.59;;;15.05;67.51
61026;BME280;46911;32.650;-16.902;2023-03-14T01:07:16;102108.59;;;15.02;66.69
61026;BME280;46911;32.650;-16.902;2023-03-14T01:09:19;102126.03;;;15.09;65.84
61026;BME280;46911;32.650;-16.902;2023-03-14T01:11:31;102124.50;;;15.05;65.84
61026;BME280;46911;32.650;-16.902;2023-03-14T01:13:35;102107.44;;;14.92;65.57
61026;BME280;46911;32.650;-16.902;2023-03-14T01:15:37;102106.66;;;14.89;65.99
61026;BME280;46911;32.650;-16.902;2023-03-14T01:17:47;102094.28;;;14.87;65.91
61026;BME280;46911;32.650;-16.902;2023-03-14T01:19:50;102122.31;;;14.97;66.65
61026;BME280;46911;32.650;-16.902;2023-03-14T01:21:51;102103.50;;;14.83;68.30
61026;BME280;46911;32.650;-16.902;2023-03-14T01:23:53;102121.72;;;14.92;69.96
61026;BME280;46911;32.650;-16.902;2023-03-14T01:25:55;102096.63;;;14.79;72.35
61026;BME280;46911;32.650;-16.902;2023-03-14T01:27:56;102103.94;;;14.77;73.05
61026;BME280;46911;32.650;-16.902;2023-03-14T01:29:59;102116.19;;;14.81;73.97
61026;BME280;46911;32.650;-16.902;2023-03-14T01:32:01;102091.31;;;14.63;74.75
61026;BME280;46911;32.650;-16.902;2023-03-14T01:34:08;102107.19;;;14.67;75.69
61026;BME280;46911;32.650;-16.902;2023-03-14T01:36:16;102112.47;;;14.69;76.91
61026;BME280;46911;32.650;-16.902;2023-03-14T01:38:19;102100.63;;;14.57;77.06
61026;BME280;46911;32.650;-16.902;2023-03-14T01:40:21;102087.03;;;14.46;77.12
61026;BME280;46911;32.650;-16.902;2023-03-14T01:42:25;102085.31;;;14.45;76.18
61026;BME280;46911;32.650;-16.902;2023-03-14T01:44:26;102089.03;;;14.42;75.41
61026;BME280;46911;32.650;-16.902;2023-03-14T01:46:44;102092.88;;;14.38;74.90
61026;BME280;46911;32.650;-16.902;2023-03-14T01:53:42;102084.34;;;14.31;71.67
61026;BME280;46911;32.650;-16.902;2023-03-14T01:55:45;102103.41;;;14.41;70.93
61026;BME280;46911;32.650;-16.902;2023-03-14T01:57:56;102109.25;;;14.48;70.18
61026;BME280;46911;32.650;-16.902;2023-03-14T02:00:24;102114.63;;;14.48;69.70
61026;BME280;46911;32.650;-16.902;2023-03-14T02:02:26;102113.78;;;14.47;68.69
61026;BME280;46911;32.650;-16.902;2023-03-14T02:04:30;102102.63;;;14.39;68.28
61026;BME280;46911;32.650;-16.902;2023-03-14T02:06:40;102095.81;;;14.33;67.66
61026;BME280;46911;32.650;-16.902;2023-03-14T02:08:46;102115.59;;;14.47;66.00
61026;BME280;46911;32.650;-16.902;2023-03-14T02:10:57;102073.13;;;14.25;64.98
61026;BME280;46911;32.650;-16.902;2023-03-14T02:13:19;102109.25;;;14.48;65.05
61026;BME280;46911;32.650;-16.902;2023-03-14T02:15:31;102095.47;;;14.39;64.55
61026;BME280;46911;32.650;-16.902;2023-03-14T02:18:02;102094.56;;;14.39;64.18
61026;BME280;46911;32.650;-16.902;2023-03-14T02:22:31;102085.78;;;14.37;64.00
61026;BME280;46911;32.650;-16.902;2023-03-14T02:27:07;102099.69;;;14.44;63.73
61026;BME280;46911;32.650;-16.902;2023-03-14T02:29:13;102104.19;;;14.43;63.91
61026;BME280;46911;32.650;-16.902;2023-03-14T02:31:16;102084.44;;;14.30;64.57
61026;BME280;46911;32.650;-16.902;2023-03-14T02:33:20;102095.47;;;14.39;64.56
61026;BME280;46911;32.650;-16.902;2023-03-14T02:35:31;102065.81;;;14.27;64.29
61026;BME280;46911;32.650;-16.902;2023-03-14T02:40:01;102071.97;;;14.29;64.80
61026;BME280;46911;32.650;-16.902;2023-03-14T02:42:08;102069.38;;;14.27;64.75
61026;BME280;46911;32.650;-16.902;2023-03-14T02:44:12;102089.59;;;14.33;64.82
61026;BME280;46911;32.650;-16.902;2023-03-14T02:46:18;102093.16;;;14.33;64.73
61026;BME280;46911;32.650;-16.902;2023-03-14T02:48:39;102084.25;;;14.33;64.72
61026;BME280;46911;32.650;-16.902;2023-03-14T02:50:47;102086.34;;;14.28;64.85
61026;BME280;46911;32.650;-16.902;2023-03-14T02:52:51;102082.88;;;14.26;64.96
61026;BME280;46911;32.650;-16.902;2023-03-14T02:54:52;102062.06;;;14.15;65.52
61026;BME280;46911;32.650;-16.902;2023-03-14T02:56:54;102063.13;;;14.12;65.66
61026;BME280;46911;32.650;-16.902;2023-03-14T02:58:59;102081.63;;;14.17;66.07
61026;BME280;46911;32.650;-16.902;2023-03-14T03:01:18;102085.19;;;14.17;66.71
61026;BME280;46911;32.650;-16.902;2023-03-14T03:03:24;102092.47;;;14.15;67.56
61026;BME280;46911;32.650;-16.902;2023-03-14T03:05:28;102070.78;;;14.04;68.15
61026;BME280;46911;32.650;-16.902;2023-03-14T03:07:31;102071.19;;;13.98;68.53
61026;BME280;46911;32.650;-16.902;2023-03-14T03:09:33;102092.75;;;14.11;68.45
61026;BME280;46911;32.650;-16.902;2023-03-14T03:11:36;102077.78;;;14.06;68.89
61026;BME280;46911;32.650;-16.902;2023-03-14T03:13:39;102059.47;;;13.99;68.80
61026;BME280;46911;32.650;-16.902;2023-03-14T03:15:41;102053.44;;;13.95;69.05
61026;BME280;46911;32.650;-16.902;2023-03-14T03:17:47;102058.81;;;13.95;69.21
61026;BME280;46911;32.650;-16.902;2023-03-14T03:19:47;102058.63;;;13.98;68.69
61026;BME280;46911;32.650;-16.902;2023-03-14T03:21:48;102070.78;;;14.04;68.43
61026;BME280;46911;32.650;-16.902;2023-03-14T03:23:50;102060.94;;;14.04;67.70
61026;BME280;46911;32.650;-16.902;2023-03-14T03:25:51;102066.38;;;14.03;67.55
61026;BME280;46911;32.650;-16.902;2023-03-14T03:27:52;102065.50;;;14.02;67.30
61026;BME280;46911;32.650;-16.902;2023-03-14T03:29:54;102068.50;;;13.98;67.34
61026;BME280;46911;32.650;-16.902;2023-03-14T03:54:55;102045.72;;;13.75;66.25
61026;BME280;46911;32.650;-16.902;2023-03-14T03:56:58;102037.28;;;13.66;66.44
61026;BME280;46911;32.650;-16.902;2023-03-14T03:59:01;102042.28;;;13.72;66.87
61026;BME280;46911;32.650;-16.902;2023-03-14T04:01:05;102032.88;;;13.65;67.97
61026;BME280;46911;32.650;-16.902;2023-03-14T04:03:13;102056.44;;;13.75;67.89
61026;BME280;46911;32.650;-16.902;2023-03-14T04:05:14;102053.97;;;13.71;67.75
61026;BME280;46911;32.650;-16.902;2023-03-14T04:07:21;102057.78;;;13.67;68.28
61026;BME280;46911;32.650;-16.902;2023-03-14T04:09:23;102040.25;;;13.62;68.41
61026;BME280;46911;32.650;-16.902;2023-03-14T04:11:42;102059.72;;;13.80;67.48
61026;BME280;46911;32.650;-16.902;2023-03-14T04:13:58;102032.13;;;13.63;67.17
61026;BME280;46911;32.650;-16.902;2023-03-14T04:16:02;102041.97;;;13.63;67.08
61026;BME280;46911;32.650;-16.902;2023-03-14T04:18:03;102050.44;;;13.71;67.27
61026;BME280;46911;32.650;-16.902;2023-03-14T04:20:06;102052.06;;;13.73;67.11
61026;BME280;46911;32.650;-16.902;2023-03-14T04:22:11;102059.22;;;13.73;66.30
61026;BME280;46911;32.650;-16.902;2023-03-14T04:24:20;102028.84;;;13.58;65.89
61026;BME280;46911;32.650;-16.902;2023-03-14T04:26:23;102028.84;;;13.58;66.16
61026;BME280;46911;32.650;-16.902;2023-03-14T04:28:24;102049.56;;;13.70;65.88
61026;BME280;46911;32.650;-16.902;2023-03-14T04:30:25;102040.16;;;13.63;65.65
61026;BME280;46911;32.650;-16.902;2023-03-14T04:32:38;102040.81;;;13.67;65.71
61026;BME280;46911;32.650;-16.902;2023-03-14T04:34:39;102020.00;;;13.56;65.60
61026;BME280;46911;32.650;-16.902;2023-03-14T04:36:43;102014.59;;;13.58;65.93
61026;BME280;46911;32.650;-16.902;2023-03-14T04:38:49;102038.31;;;13.64;66.01
61026;BME280;46911;32.650;-16.902;2023-03-14T04:40:57;102010.44;;;13.52;66.04
61026;BME280;46911;32.650;-16.902;2023-03-14T04:43:06;102016.00;;;13.49;65.37
61026;BME280;46911;32.650;-16.902;2023-03-14T04:45:08;102013.31;;;13.49;64.88
61026;BME280;46911;32.650;-16.902;2023-03-14T04:47:12;102010.91;;;13.44;64.79
61026;BME280;46911;32.650;-16.902;2023-03-14T04:49:17;102026.25;;;13.56;64.75
61026;BME280;46911;32.650;-16.902;2023-03-14T04:51:21;102032.56;;;13.55;64.41
61026;BME280;46911;32.650;-16.902;2023-03-14T04:53:23;102014.44;;;13.45;63.79
61026;BME280;46911;32.650;-16.902;2023-03-14T04:55:28;102028.84;;;13.58;63.59
61026;BME280;46911;32.650;-16.902;2023-03-14T04:57:34;102004.31;;;13.50;63.17
61026;BME280;46911;32.650;-16.902;2023-03-14T04:59:38;102027.69;;;13.62;62.91
61026;BME280;46911;32.650;-16.902;2023-03-14T05:01:53;102023.84;;;13.52;62.76
61026;BME280;46911;32.650;-16.902;2023-03-14T05:04:20;102038.13;;;13.52;62.87
61026;BME280;46911;32.650;-16.902;2023-03-14T05:06:29;102035.06;;;13.59;61.64
61026;BME280;46911;32.650;-16.902;2023-03-14T05:08:49;102016.94;;;13.48;61.30
61026;BME280;46911;32.650;-16.902;2023-03-14T05:11:29;102041.47;;;13.56;61.33
61026;BME280;46911;32.650;-16.902;2023-03-14T05:13:51;102027.00;;;13.44;61.07
61026;BME280;46911;32.650;-16.902;2023-03-14T05:16:10;102040.31;;;13.46;61.55
61026;BME280;46911;32.650;-16.902;2023-03-14T05:18:35;102035.53;;;13.35;61.48
61026;BME280;46911;32.650;-16.902;2023-03-14T05:20:52;102031.13;;;13.34;61.28
61026;BME280;46911;32.650;-16.902;2023-03-14T05:23:12;102050.34;;;13.42;61.36
61026;BME280;46911;32.650;-16.902;2023-03-14T05:25:33;102028.69;;;13.29;61.26
61026;BME280;46911;32.650;-16.902;2023-03-14T05:27:48;102046.09;;;13.38;61.15
61026;BME280;46911;32.650;-16.902;2023-03-14T05:30:17;102027.94;;;13.27;60.81
61026;BME280;46911;32.650;-16.902;2023-03-14T05:32:31;102031.03;;;13.35;60.81
61026;BME280;46911;32.650;-16.902;2023-03-14T05:34:55;102039.59;;;13.42;61.28
61026;BME280;46911;32.650;-16.902;2023-03-14T05:37:07;102031.13;;;13.34;61.69
61026;BME280;46911;32.650;-16.902;2023-03-14T05:39:27;102025.06;;;13.30;62.60
61026;BME280;46911;32.650;-16.902;2023-03-14T05:42:05;102039.97;;;13.36;63.10
61026;BME280;46911;32.650;-16.902;2023-03-14T05:44:30;102055.16;;;13.35;62.71
61026;BME280;46911;32.650;-16.902;2023-03-14T05:46:37;102016.22;;;13.14;62.72
61026;BME280;46911;32.650;-16.902;2023-03-14T05:49:04;102037.53;;;13.31;62.81
61026;BME280;46911;32.650;-16.902;2023-03-14T05:51:24;102030.97;;;13.21;62.85
61026;BME280;46911;32.650;-16.902;2023-03-14T05:53:56;102033.22;;;13.29;62.69
61026;BME280;46911;32.650;-16.902;2023-03-14T05:56:20;102055.34;;;13.32;62.42
61026;BME280;46911;32.650;-16.902;2023-03-14T05:58:30;102044.03;;;13.27;62.46
61026;BME280;46911;32.650;-16.902;2023-03-14T06:01:09;102030.22;;;13.19;61.94
61026;BME280;46911;32.650;-16.902;2023-03-14T06:03:33;102050.25;;;13.28;61.86
61026;BME280;46911;32.650;-16.902;2023-03-14T06:05:34;102044.28;;;13.22;61.60
61026;BME280;46911;32.650;-16.902;2023-03-14T06:07:36;102026.84;;;13.15;61.29
61026;BME280;46911;32.650;-16.902;2023-03-14T06:09:39;102029.44;;;13.17;60.67
61026;BME280;46911;32.650;-16.902;2023-03-14T06:11:41;102050.84;;;13.33;60.56
61026;BME280;46911;32.650;-16.902;2023-03-14T06:13:45;102031.84;;;13.21;59.89
61026;BME280;46911;32.650;-16.902;2023-03-14T06:15:46;102030.78;;;13.24;59.94
61026;BME280;46911;32.650;-16.902;2023-03-14T06:17:50;102062.28;;;13.36;60.03
61026;BME280;46911;32.650;-16.902;2023-03-14T06:19:55;102044.78;;;13.29;60.20
61026;BME280;46911;32.650;-16.902;2023-03-14T06:21:59;102048.25;;;13.31;60.29
61026;BME280;46911;32.650;-16.902;2023-03-14T06:24:01;102052.81;;;13.29;60.17
61026;BME280;46911;32.650;-16.902;2023-03-14T06:26:04;102033.94;;;13.16;60.13
61026;BME280;46911;32.650;-16.902;2023-03-14T06:28:08;102052.81;;;13.29;59.76
61026;BME280;46911;32.650;-16.902;2023-03-14T06:30:10;102038.50;;;13.14;59.56
61026;BME280;46911;32.650;-16.902;2023-03-14T06:32:13;102024.78;;;13.04;59.41
61026;BME280;46911;32.650;-16.902;2023-03-14T06:34:19;102029.78;;;13.11;59.36
61026;BME280;46911;32.650;-16.902;2023-03-14T06:36:20;102043.97;;;13.13;59.38
61026;BME280;46911;32.650;-16.902;2023-03-14T06:38:23;102032.91;;;13.03;59.47
61026;BME280;46911;32.650;-16.902;2023-03-14T06:40:28;102042.75;;;13.02;59.22
61026;BME280;46911;32.650;-16.902;2023-03-14T06:42:37;102045.84;;;13.11;58.87
61026;BME280;46911;32.650;-16.902;2023-03-14T06:44:43;102034.28;;;13.10;58.19
61026;BME280;46911;32.650;-16.902;2023-03-14T06:46:44;102051.03;;;13.14;57.81
61026;BME280;46911;32.650;-16.902;2023-03-14T06:48:45;102070.97;;;13.24;57.92
61026;BME280;46911;32.650;-16.902;2023-03-14T06:50:50;102077.13;;;13.26;57.63
61026;BME280;46911;32.650;-16.902;2023-03-14T06:52:53;102064.25;;;13.17;57.89
61026;BME280;46911;32.650;-16.902;2023-03-14T06:54:58;102086.38;;;13.20;58.38
61026;BME280;46911;32.650;-16.902;2023-03-14T06:57:03;102064.03;;;13.05;58.63
61026;BME280;46911;32.650;-16.902;2023-03-14T06:59:05;102066.41;;;13.10;58.77
61026;BME280;46911;32.650;-16.902;2023-03-14T07:01:19;102058.91;;;13.01;58.78
61026;BME280;46911;32.650;-16.902;2023-03-14T07:03:21;102058.06;;;13.00;58.30
61026;BME280;46911;32.650;-16.902;2023-03-14T07:05:24;102060.72;;;13.00;58.19
61026;BME280;46911;32.650;-16.902;2023-03-14T07:07:25;102081.38;;;13.14;58.29
61026;BME280;46911;32.650;-16.902;2023-03-14T07:09:26;102060.22;;;13.10;58.17
61026;BME280;46911;32.650;-16.902;2023-03-14T07:11:33;102064.44;;;13.14;58.35
61026;BME280;46911;32.650;-16.902;2023-03-14T07:13:40;102078.25;;;13.22;58.60
61026;BME280;46911;32.650;-16.902;2023-03-14T07:15:44;102065.47;;;13.11;58.93
61026;BME280;46911;32.650;-16.902;2023-03-14T07:17:50;102072.81;;;13.07;59.15
61026;BME280;46911;32.650;-16.902;2023-03-14T07:19:55;102076.09;;;13.13;59.46
61026;BME280;46911;32.650;-16.902;2023-03-14T07:22:00;102083.94;;;13.16;59.94
61026;BME280;46911;32.650;-16.902;2023-03-14T07:24:03;102076.91;;;13.15;60.11
61026;BME280;46911;32.650;-16.902;2023-03-14T07:26:08;102089.38;;;13.30;60.37
61026;BME280;46911;32.650;-16.902;2023-03-14T07:28:12;102079.63;;;13.29;60.06
61026;BME280;46911;32.650;-16.902;2023-03-14T07:30:16;102076.19;;;13.27;59.80
61026;BME280;46911;32.650;-16.902;2023-03-14T07:32:17;102068.03;;;13.29;59.77
61026;BME280;46911;32.650;-16.902;2023-03-14T07:34:25;102082.59;;;13.41;59.91
61026;BME280;46911;32.650;-16.902;2023-03-14T07:36:33;102086.63;;;13.48;60.12
61026;BME280;46911;32.650;-16.902;2023-03-14T07:38:38;102074.16;;;13.47;60.12
61026;BME280;46911;32.650;-16.902;2023-03-14T07:41:03;102084.78;;;13.64;59.89
61026;BME280;46911;32.650;-16.902;2023-03-14T07:43:07;102088.63;;;13.75;59.96
61026;BME280;46911;32.650;-16.902;2023-03-14T07:45:22;102067.88;;;13.78;59.36
61026;BME280;46911;32.650;-16.902;2023-03-14T07:47:23;102077.44;;;13.82;58.91
61026;BME280;46911;32.650;-16.902;2023-03-14T07:49:28;102089.53;;;13.89;58.94
61026;BME280;46911;32.650;-16.902;2023-03-14T07:51:32;102084.59;;;13.98;58.44
61026;BME280;46911;32.650;-16.902;2023-03-14T07:53:33;102065.88;;;13.96;58.06
61026;BME280;46911;32.650;-16.902;2023-03-14T07:55:34;102090.63;;;14.16;57.94
61026;BME280;46911;32.650;-16.902;2023-03-14T07:57:34;102067.53;;;14.13;57.77
61026;BME280;46911;32.650;-16.902;2023-03-14T07:59:35;102083.75;;;14.26;57.68
61026;BME280;46911;32.650;-16.902;2023-03-14T08:01:36;102085.56;;;14.40;57.37
61026;BME280;46911;32.650;-16.902;2023-03-14T08:03:40;102077.81;;;14.50;56.88
61026;BME280;46911;32.650;-16.902;2023-03-14T08:05:41;102085.31;;;14.59;56.73
61026;BME280;46911;32.650;-16.902;2023-03-14T08:07:42;102089.91;;;14.71;56.61
61026;BME280;46911;32.650;-16.902;2023-03-14T08:09:43;102085.88;;;14.79;56.60
61026;BME280;46911;32.650;-16.902;2023-03-14T08:11:47;102103.00;;;15.05;56.05
61026;BME280;46911;32.650;-16.902;2023-03-14T08:13:48;102102.69;;;15.10;56.05
61026;BME280;46911;32.650;-16.902;2023-03-14T08:15:53;102103.63;;;15.23;55.82
61026;BME280;46911;32.650;-16.902;2023-03-14T08:17:54;102086.75;;;15.21;55.98
61026;BME280;46911;32.650;-16.902;2023-03-14T08:19:57;102112.09;;;15.44;56.00
61026;BME280;46911;32.650;-16.902;2023-03-14T08:22:04;102113.09;;;15.56;55.94
61026;BME280;46911;32.650;-16.902;2023-03-14T08:24:10;102092.66;;;15.53;55.77
61026;BME280;46911;32.650;-16.902;2023-03-14T08:26:15;102111.97;;;15.73;55.94
61026;BME280;46911;32.650;-16.902;2023-03-14T08:28:16;102113.19;;;15.82;55.78
61026;BME280;46911;32.650;-16.902;2023-03-14T08:30:21;102104.34;;;15.80;55.75
61026;BME280;46911;32.650;-16.902;2023-03-14T08:32:22;102115.81;;;15.96;55.90
61026;BME280;46911;32.650;-16.902;2023-03-14T08:34:27;102095.69;;;15.89;55.97
61026;BME280;46911;32.650;-16.902;2023-03-14T08:36:28;102113.03;;;16.11;56.08
61026;BME280;46911;32.650;-16.902;2023-03-14T08:38:31;102102.16;;;16.12;55.84
61026;BME280;46911;32.650;-16.902;2023-03-14T08:40:35;102114.69;;;16.26;56.16
61026;BME280;46911;32.650;-16.902;2023-03-14T08:42:37;102090.63;;;16.23;56.22
61026;BME280;46911;32.650;-16.902;2023-03-14T08:44:41;102097.66;;;16.38;56.54
61026;BME280;46911;32.650;-16.902;2023-03-14T08:46:46;102090.53;;;16.37;56.33
61026;BME280;46911;32.650;-16.902;2023-03-14T08:48:49;102117.75;;;16.71;56.31
61026;BME280;46911;32.650;-16.902;2023-03-14T08:50:50;102118.09;;;16.80;56.38
61026;BME280;46911;32.650;-16.902;2023-03-14T08:52:51;102101.44;;;16.86;56.25
61026;BME280;46911;32.650;-16.902;2023-03-14T08:54:54;102124.94;;;17.10;56.14
61026;BME280;46911;32.650;-16.902;2023-03-14T08:56:56;102122.81;;;17.26;55.09
61026;BME280;46911;32.650;-16.902;2023-03-14T08:58:57;102118.72;;;17.33;55.16
61026;BME280;46911;32.650;-16.902;2023-03-14T09:01:03;102133.00;;;17.47;54.98
61026;BME280;46911;32.650;-16.902;2023-03-14T09:03:06;102125.47;;;17.63;54.87
61026;BME280;46911;32.650;-16.902;2023-03-14T09:05:10;102126.63;;;17.83;54.55
61026;BME280;46911;32.650;-16.902;2023-03-14T09:07:13;102103.84;;;17.87;54.50
61026;BME280;46911;32.650;-16.902;2023-03-14T09:09:19;102104.81;;;18.11;54.25
61026;BME280;46911;32.650;-16.902;2023-03-14T09:11:20;102121.50;;;18.38;53.96
61026;BME280;46911;32.650;-16.902;2023-03-14T09:13:23;102098.56;;;18.44;53.88
61026;BME280;46911;32.650;-16.902;2023-03-14T09:15:24;102116.84;;;18.74;53.71
61026;BME280;46911;32.650;-16.902;2023-03-14T09:17:26;102123.78;;;18.90;53.72
61026;BME280;46911;32.650;-16.902;2023-03-14T09:19:29;102104.59;;;19.04;53.61
61026;BME280;46911;32.650;-16.902;2023-03-14T09:21:33;102116.72;;;18.87;55.91
61026;BME280;46911;32.650;-16.902;2023-03-14T09:23:34;102095.75;;;18.68;56.27
61026;BME280;46911;32.650;-16.902;2023-03-14T09:25:35;102120.41;;;19.09;55.89
61026;BME280;46911;32.650;-16.902;2023-03-14T09:27:36;102119.44;;;19.21;56.06
61026;BME280;46911;32.650;-16.902;2023-03-14T09:29:39;102117.28;;;19.36;56.20
61026;BME280;46911;32.650;-16.902;2023-03-14T09:31:42;102118.84;;;19.83;55.60
61026;BME280;46911;32.650;-16.902;2023-03-14T09:33:43;102125.44;;;20.32;55.41
61026;BME280;46911;32.650;-16.902;2023-03-14T09:35:45;102115.88;;;20.90;54.12
61026;BME280;46911;32.650;-16.902;2023-03-14T09:37:46;102126.25;;;21.35;53.11
61026;BME280;46911;32.650;-16.902;2023-03-14T09:39:49;102110.41;;;21.99;51.79
61026;BME280;46911;32.650;-16.902;2023-03-14T09:41:56;102123.22;;;22.74;49.23
61026;BME280;46911;32.650;-16.902;2023-03-14T09:46:21;102089.63;;;23.11;46.44
61026;BME280;46911;32.650;-16.902;2023-03-14T09:48:29;102127.97;;;23.46;46.57
61026;BME280;46911;32.650;-16.902;2023-03-14T09:50:50;102087.63;;;23.85;44.44
61026;BME280;46911;32.650;-16.902;2023-03-14T09:53:21;102133.81;;;24.31;43.82
61026;BME280;46911;32.650;-16.902;2023-03-14T09:55:24;102130.91;;;24.59;43.30
61026;BME280;46911;32.650;-16.902;2023-03-14T09:57:26;102128.13;;;23.98;44.09
61026;BME280;46911;32.650;-16.902;2023-03-14T09:59:30;102120.09;;;23.61;45.45
61026;BME280;46911;32.650;-16.902;2023-03-14T10:01:33;102119.97;;;24.59;44.34
61026;BME280;46911;32.650;-16.902;2023-03-14T10:03:35;102117.50;;;25.17;42.54
61026;BME280;46911;32.650;-16.902;2023-03-14T10:05:41;102133.09;;;25.41;41.25
61026;BME280;46911;32.650;-16.902;2023-03-14T10:07:46;102130.56;;;25.56;41.93
61026;BME280;46911;32.650;-16.902;2023-03-14T10:09:49;102135.44;;;25.28;41.16
61026;BME280;46911;32.650;-16.902;2023-03-14T10:11:55;102135.84;;;26.32;40.22
61026;BME280;46911;32.650;-16.902;2023-03-14T10:14:08;102143.03;;;25.59;41.19
61026;BME280;46911;32.650;-16.902;2023-03-14T10:16:09;102127.16;;;25.95;40.02
61026;BME280;46911;32.650;-16.902;2023-03-14T10:18:14;102147.50;;;26.17;40.36
61026;BME280;46911;32.650;-16.902;2023-03-14T10:22:38;102147.63;;;25.50;42.43
61026;BME280;46911;32.650;-16.902;2023-03-14T10:24:45;102139.81;;;25.55;42.53
61026;BME280;46911;32.650;-16.902;2023-03-14T10:26:53;102126.88;;;25.14;42.56
61026;BME280;46911;32.650;-16.902;2023-03-14T10:29:10;102133.50;;;23.90;45.12
61026;BME280;46911;32.650;-16.902;2023-03-14T10:31:12;102156.53;;;23.42;45.98
61026;BME280;46911;32.650;-16.902;2023-03-14T10:33:22;102137.47;;;22.86;47.13
61026;BME280;46911;32.650;-16.902;2023-03-14T10:35:26;102124.59;;;22.88;47.80
61026;BME280;46911;32.650;-16.902;2023-03-14T10:37:32;102123.44;;;23.18;47.14
61026;BME280;46911;32.650;-16.902;2023-03-14T10:39:40;102145.34;;;23.63;46.88
61026;BME280;46911;32.650;-16.902;2023-03-14T10:41:54;102132.34;;;23.56;46.58
61026;BME280;46911;32.650;-16.902;2023-03-14T10:44:01;102128.00;;;23.64;46.60
61026;BME280;46911;32.650;-16.902;2023-03-14T10:46:12;102140.81;;;23.71;47.13
61026;BME280;46911;32.650;-16.902;2023-03-14T10:48:36;102124.47;;;23.35;47.49
61026;BME280;46911;32.650;-16.902;2023-03-14T10:50:57;102137.88;;;24.27;45.53
61026;BME280;46911;32.650;-16.902;2023-03-14T10:53:02;102134.13;;;24.89;45.17
61026;BME280;46911;32.650;-16.902;2023-03-14T10:55:11;102122.19;;;25.90;41.86
61026;BME280;46911;32.650;-16.902;2023-03-14T10:57:19;102119.19;;;27.06;39.87
61026;BME280;46911;32.650;-16.902;2023-03-14T10:59:20;102134.91;;;27.44;39.56
61026;BME280;46911;32.650;-16.902;2023-03-14T11:03:47;102113.81;;;26.17;41.02
61026;BME280;46911;32.650;-16.902;2023-03-14T11:08:18;102128.69;;;26.22;40.98
61026;BME280;46911;32.650;-16.902;2023-03-14T11:10:43;102104.00;;;26.95;39.46
61026;BME280;46911;32.650;-16.902;2023-03-14T11:15:20;102113.59;;;27.92;37.32
61026;BME280;46911;32.650;-16.902;2023-03-14T11:17:41;102101.06;;;28.13;35.62
61026;BME280;46911;32.650;-16.902;2023-03-14T11:27:18;102113.59;;;27.54;37.69
61026;BME280;46911;32.650;-16.902;2023-03-14T11:31:47;102111.53;;;23.55;46.65
61026;BME280;46911;32.650;-16.902;2023-03-14T11:36:32;102111.81;;;24.94;43.23
61026;BME280;46911;32.650;-16.902;2023-03-14T11:40:49;102101.91;;;23.61;46.85
61026;BME280;46911;32.650;-16.902;2023-03-14T11:45:17;102096.75;;;24.20;45.71
61026;BME280;46911;32.650;-16.902;2023-03-14T11:47:37;102100.84;;;24.51;44.37
61026;BME280;46911;32.650;-16.902;2023-03-14T11:49:45;102083.34;;;24.27;45.82